Time;durP1;ratioP1;P1;durP2;ratioP2;P2;SDS_P1;SDS_P2;PMS_P1;PMS_P2;Temp;Humidity;BMP_temperature;BMP_pressure;BME280_temperature;BME280_humidity;BME280_pressure;Samples;Min_cycle;Max_cycle;Signal;HPM_P1;HPM_P2
2022/02/13 00:02:05;;;;;;;5.88;5.03;;;;;;;4.22;82.81;96078.34;5008812;28;20564;-78
2022/02/13 00:04:31;;;;;;;6.72;4.65;;;;;;;4.11;81.47;96051.81;5026938;28;20025;-78
2022/02/13 00:06:56;;;;;;;5.03;4.53;;;;;;;4.08;79.92;96057.94;5022239;28;20049;-77
2022/02/13 00:09:22;;;;;;;5.32;4.75;;;;;;;4.07;79.25;96063.19;5026725;28;20040;-77
2022/02/13 00:11:47;;;;;;;7.47;4.53;;;;;;;4.09;79.17;96062.16;5009471;28;20024;-76
2022/02/13 00:14:16;;;;;;;6.22;4.53;;;;;;;4.06;79.05;96070.06;5027967;28;20022;-78
2022/02/13 00:16:41;;;;;;;5.63;3.75;;;;;;;4.09;78.91;96069.03;5016598;28;20026;-75
2022/02/13 00:19:07;;;;;;;8.48;4.90;;;;;;;4.04;79.00;96077.03;5025647;28;20044;-78
2022/02/13 00:21:33;;;;;;;6.57;4.30;;;;;;;4.00;80.14;96067.09;5030594;28;20026;-76
2022/02/13 00:23:58;;;;;;;4.45;4.03;;;;;;;3.99;79.89;96068.00;5028882;28;20072;-79
2022/02/13 00:26:24;;;;;;;4.35;3.95;;;;;;;3.92;80.67;96057.34;5029296;28;20060;-77
2022/02/13 00:28:49;;;;;;;6.40;4.10;;;;;;;3.93;80.95;96074.34;5035937;28;20029;-78
2022/02/13 00:31:15;;;;;;;6.07;4.80;;;;;;;3.86;81.04;96056.94;5018532;28;20030;-76
2022/02/13 00:33:40;;;;;;;5.55;4.47;;;;;;;3.93;80.90;96066.69;5010599;28;20121;-77
2022/02/13 00:36:06;;;;;;;6.45;4.25;;;;;;;3.83;82.11;96054.56;5034395;28;20033;-79
2022/02/13 00:38:31;;;;;;;5.78;4.30;;;;;;;3.81;82.71;96046.19;5030000;28;20047;-78
2022/02/13 00:40:57;;;;;;;5.30;4.25;;;;;;;3.76;83.46;96055.94;5032711;28;20036;-79
2022/02/13 00:43:22;;;;;;;5.32;4.70;;;;;;;3.73;83.55;96047.50;5032437;28;20053;-78
2022/02/13 00:45:54;;;;;;;5.88;4.13;;;;;;;3.77;84.69;96057.53;5021059;28;20108;-79
2022/02/13 00:48:21;;;;;;;7.07;4.53;;;;;;;3.66;84.72;96038.59;5044405;28;20088;-78
2022/02/13 00:50:46;;;;;;;5.55;5.03;;;;;;;3.63;85.62;96037.97;5027131;28;20045;-77
2022/02/13 00:53:12;;;;;;;4.38;3.92;;;;;;;3.60;87.65;96048.41;5033916;28;20033;-79
2022/02/13 00:55:37;;;;;;;5.55;5.05;;;;;;;3.58;88.01;96055.38;5039890;28;20040;-76
2022/02/13 00:58:03;;;;;;;6.30;4.65;;;;;;;3.54;89.13;96065.00;5021090;28;20048;-78
2022/02/13 01:00:28;;;;;;;5.40;4.75;;;;;;;3.54;89.91;96038.56;5019775;28;20059;-73
2022/02/13 01:02:53;;;;;;;6.38;5.20;;;;;;;3.41;89.83;96042.84;5029579;28;20026;-78
2022/02/13 01:05:19;;;;;;;5.63;5.07;;;;;;;3.40;89.93;96049.75;5041214;28;20009;-80
2022/02/13 01:07:44;;;;;;;5.50;5.00;;;;;;;3.34;89.99;96047.56;5023858;28;20040;-78
2022/02/13 01:10:10;;;;;;;5.88;4.95;;;;;;;3.39;92.03;96066.00;5018761;28;20154;-79
2022/02/13 01:12:37;;;;;;;5.28;4.85;;;;;;;3.31;91.93;96052.88;5037462;28;20029;-75
2022/02/13 01:15:04;;;;;;;5.57;5.05;;;;;;;3.33;92.16;96045.94;5039861;28;20048;-79
2022/02/13 01:17:30;;;;;;;6.18;5.57;;;;;;;3.31;92.27;96052.88;5020896;28;20037;-78
2022/02/13 01:19:55;;;;;;;4.00;3.65;;;;;;;3.13;92.12;96034.44;5016280;28;20112;-79
2022/02/13 01:22:21;;;;;;;7.30;5.30;;;;;;;3.22;91.13;96027.06;5037303;28;20029;-77
2022/02/13 01:24:46;;;;;;;5.45;4.53;;;;;;;3.16;90.90;96041.09;5039541;28;20086;-79
2022/02/13 01:27:12;;;;;;;5.70;4.40;;;;;;;3.06;90.99;96035.72;5048502;28;20041;-79
2022/02/13 01:32:13;;;;;;;4.55;4.15;;;;;;;2.84;89.47;96006.50;5078947;22;20063;-77
2022/02/13 01:34:38;;;;;;;4.90;4.40;;;;;;;2.92;88.67;96014.53;5038389;28;20025;-79
2022/02/13 01:37:04;;;;;;;6.00;4.50;;;;;;;2.87;89.06;96008.88;5051899;28;20049;-77
2022/02/13 01:39:31;;;;;;;5.55;4.97;;;;;;;3.00;89.50;96037.88;5051875;28;20060;-76
2022/02/13 01:41:56;;;;;;;4.05;3.65;;;;;;;2.80;88.84;96005.06;5048900;28;20471;-79
2022/02/13 01:44:27;;;;;;;3.95;3.55;;;;;;;2.94;88.39;96036.53;5051389;28;20056;-76
2022/02/13 01:46:53;;;;;;;4.45;4.05;;;;;;;2.92;88.30;96046.00;5051734;28;20056;-78
2022/02/13 01:49:19;;;;;;;7.40;4.10;;;;;;;2.90;88.66;96026.56;5051927;28;20533;-79
2022/02/13 01:51:45;;;;;;;4.15;3.75;;;;;;;2.90;89.01;96036.81;5076996;28;20005;-80
2022/02/13 01:54:11;;;;;;;4.57;4.18;;;;;;;2.75;88.51;96017.31;5368304;22;20061;-76
2022/02/13 01:56:37;;;;;;;6.10;3.38;;;;;;;2.80;86.43;96026.34;5018347;28;20048;-80
2022/02/13 01:59:03;;;;;;;6.53;4.10;;;;;;;2.89;86.23;96047.97;5015298;28;20033;-78
2022/02/13 02:01:28;;;;;;;4.68;4.18;;;;;;;2.85;85.36;96033.72;5012232;28;20099;-76
2022/02/13 02:03:54;;;;;;;5.00;4.28;;;;;;;2.79;85.28;96029.84;5014843;28;20033;-77
2022/02/13 02:06:20;;;;;;;4.75;4.25;;;;;;;2.63;85.08;96017.16;5031140;28;20465;-78
2022/02/13 02:08:46;;;;;;;3.92;3.50;;;;;;;2.79;84.12;96042.63;5018764;28;20392;-79
2022/02/13 02:11:11;;;;;;;7.88;3.70;;;;;;;2.71;84.76;96029.47;5031322;28;20028;-78
2022/02/13 02:13:37;;;;;;;4.60;4.20;;;;;;;2.77;85.35;96035.94;5031668;28;20037;-79
2022/02/13 02:16:02;;;;;;;4.38;3.75;;;;;;;2.73;85.01;96034.50;5033670;28;20044;-76
2022/02/13 02:18:28;;;;;;;4.78;3.90;;;;;;;2.68;84.36;96037.34;5033247;28;20107;-76
2022/02/13 02:20:55;;;;;;;5.93;3.85;;;;;;;2.67;84.58;96028.84;5029004;28;20033;-77
2022/02/13 02:23:21;;;;;;;5.70;4.00;;;;;;;2.67;85.17;96051.88;5011777;28;20021;-76
2022/02/13 02:25:46;;;;;;;4.22;3.40;;;;;;;2.70;84.29;96052.59;5014336;28;20368;-76
2022/02/13 02:28:12;;;;;;;6.15;4.57;;;;;;;2.64;84.03;96041.81;5036901;28;20616;-78
2022/02/13 02:30:37;;;;;;;3.53;3.20;;;;;;;2.57;85.37;96040.56;5015718;28;20016;-78
2022/02/13 02:33:03;;;;;;;5.10;3.72;;;;;;;2.54;85.70;96039.94;5042035;28;20057;-79
2022/02/13 02:35:30;;;;;;;7.05;4.18;;;;;;;2.56;85.87;96049.16;5046861;28;20040;-80
2022/02/13 02:37:56;;;;;;;6.35;3.55;;;;;;;2.61;85.60;96049.69;5036422;28;20502;-79
2022/02/13 02:40:21;;;;;;;4.35;3.78;;;;;;;2.50;86.48;96035.94;5017786;28;20029;-78
2022/02/13 02:42:47;;;;;;;4.53;3.47;;;;;;;2.52;86.19;96037.47;5039836;28;20037;-77
2022/02/13 02:45:14;;;;;;;4.55;3.50;;;;;;;2.45;86.68;96046.44;5048031;28;20402;-79
2022/02/13 02:47:42;;;;;;;4.38;3.95;;;;;;;2.46;86.35;96040.44;5025684;28;20045;-78
2022/02/13 02:50:11;;;;;;;5.57;3.78;;;;;;;2.51;86.18;96058.84;5042988;28;20091;-79
2022/02/13 02:52:36;;;;;;;5.35;3.40;;;;;;;2.45;85.98;96049.00;5044933;28;20013;-78
2022/02/13 02:55:02;;;;;;;5.53;4.07;;;;;;;2.43;86.42;96058.50;5031640;28;20030;-79
2022/02/13 02:57:27;;;;;;;6.13;3.92;;;;;;;2.44;86.56;96062.69;5045113;28;20029;-79
2022/02/13 02:59:52;;;;;;;4.70;3.50;;;;;;;2.42;87.46;96061.13;5033903;28;20052;-76
2022/02/13 03:02:18;;;;;;;4.55;3.80;;;;;;;2.33;87.90;96054.88;5028251;28;20033;-76
2022/02/13 03:04:43;;;;;;;6.28;3.90;;;;;;;2.38;87.95;96057.13;5011514;28;20107;-77
2022/02/13 03:07:09;;;;;;;6.00;3.83;;;;;;;2.37;88.39;96071.66;5026418;28;20558;-76
2022/02/13 03:09:35;;;;;;;7.18;4.50;;;;;;;2.34;88.20;96065.91;5033747;28;20048;-80
2022/02/13 03:12:00;;;;;;;6.18;4.20;;;;;;;2.29;88.71;96065.34;5042955;28;20025;-80
2022/02/13 03:14:26;;;;;;;5.88;4.07;;;;;;;2.33;88.61;96062.53;5257340;22;20012;-77
2022/02/13 03:16:52;;;;;;;6.57;4.68;;;;;;;2.07;89.66;96042.84;5039014;28;20045;-78
2022/02/13 03:19:18;;;;;;;6.43;4.35;;;;;;;2.16;88.84;96054.22;5041018;28;20048;-79
2022/02/13 03:21:43;;;;;;;4.75;4.28;;;;;;;2.17;89.26;96055.88;5031032;28;20037;-77
2022/02/13 03:24:09;;;;;;;5.53;3.90;;;;;;;2.20;90.65;96076.13;5027869;28;20045;-76
2022/02/13 03:26:35;;;;;;;7.55;4.50;;;;;;;2.23;89.44;96089.53;5030920;28;20030;-79
2022/02/13 03:29:01;;;;;;;6.35;4.30;;;;;;;2.17;89.45;96082.25;5018394;28;20033;-77
2022/02/13 03:31:27;;;;;;;6.43;3.78;;;;;;;2.13;89.74;96066.28;5015786;28;20028;-75
2022/02/13 03:33:53;;;;;;;5.35;3.45;;;;;;;2.12;89.96;96074.03;5038155;28;20013;-79
2022/02/13 03:36:19;;;;;;;5.82;4.13;;;;;;;2.14;89.39;96077.34;5034239;28;20430;-76
2022/02/13 03:38:45;;;;;;;4.65;4.10;;;;;;;2.09;89.16;96074.22;5043259;28;20499;-78
2022/02/13 03:41:11;;;;;;;5.05;3.72;;;;;;;2.10;89.66;96079.25;5042804;28;20036;-75
2022/02/13 03:43:36;;;;;;;7.30;3.80;;;;;;;2.05;89.21;96067.66;5031068;28;20025;-77
2022/02/13 03:46:02;;;;;;;6.07;4.07;;;;;;;2.03;89.51;96066.91;5035635;28;20026;-79
2022/02/13 03:48:28;;;;;;;5.10;3.95;;;;;;;2.05;90.10;96073.59;5013976;28;20040;-76
2022/02/13 03:50:53;;;;;;;7.97;4.07;;;;;;;2.05;90.03;96077.88;5026057;28;20422;-75
2022/02/13 03:53:18;;;;;;;8.48;3.17;;;;;;;2.05;89.55;96088.94;5012984;28;20487;-75
2022/02/13 03:55:44;;;;;;;7.00;3.97;;;;;;;2.02;89.53;96071.19;5030273;28;20013;-75
2022/02/13 03:58:15;;;;;;;5.55;3.78;;;;;;;2.04;89.27;96086.44;5040831;28;20426;-77
2022/02/13 04:00:41;;;;;;;5.82;3.50;;;;;;;1.96;89.77;96073.28;5033572;28;20013;-79
2022/02/13 04:03:06;;;;;;;4.97;3.88;;;;;;;1.89;90.37;96074.59;5038757;28;20036;-78
2022/02/13 04:05:32;;;;;;;4.40;3.85;;;;;;;1.98;90.30;96077.44;5036730;28;20023;-78
2022/02/13 04:07:57;;;;;;;8.68;4.18;;;;;;;1.99;90.04;96079.03;5039682;28;20033;-78
2022/02/13 04:10:23;;;;;;;6.72;5.03;;;;;;;1.99;90.69;96093.56;5036737;28;20033;-79
2022/02/13 04:12:48;;;;;;;5.28;4.00;;;;;;;1.94;90.99;96080.25;5034816;28;20065;-78
2022/02/13 04:15:14;;;;;;;5.93;3.92;;;;;;;1.97;90.86;96080.06;5032572;28;20072;-76
2022/02/13 04:17:39;;;;;;;6.35;4.38;;;;;;;1.98;90.75;96090.19;5031484;28;20055;-76
2022/02/13 04:20:06;;;;;;;7.60;4.32;;;;;;;1.99;91.40;96086.72;5034439;28;20053;-78
2022/02/13 04:22:31;;;;;;;5.43;4.05;;;;;;;2.00;91.48;96090.09;5036467;28;20022;-77
2022/02/13 04:24:57;;;;;;;7.40;4.28;;;;;;;1.96;91.10;96096.28;5033642;28;20052;-78
2022/02/13 04:27:22;;;;;;;6.20;4.13;;;;;;;1.99;90.42;96091.81;5042146;28;20029;-76
2022/02/13 04:29:48;;;;;;;11.10;3.92;;;;;;;1.96;90.02;96083.50;5034699;28;20032;-78
2022/02/13 04:32:13;;;;;;;6.60;4.78;;;;;;;2.00;89.92;96084.97;5031772;28;20472;-76
2022/02/13 04:34:40;;;;;;;5.10;4.22;;;;;;;2.01;89.95;96089.19;5033467;28;20351;-77
2022/02/13 04:37:06;;;;;;;6.97;4.22;;;;;;;2.04;89.76;96099.22;5021947;28;20025;-79
2022/02/13 04:39:31;;;;;;;4.93;3.45;;;;;;;1.93;89.89;96081.97;5046120;28;20567;-77
2022/02/13 04:41:57;;;;;;;5.43;4.93;;;;;;;1.93;90.20;96076.84;5019297;28;20467;-77
2022/02/13 04:44:22;;;;;;;7.72;4.28;;;;;;;1.97;89.98;96091.09;5034112;28;20085;-79
2022/02/13 04:46:48;;;;;;;4.70;3.95;;;;;;;1.96;89.52;96080.97;5031381;28;20033;-78
2022/02/13 04:49:13;;;;;;;6.07;4.32;;;;;;;2.02;90.03;96093.38;5013565;28;20022;-76
2022/02/13 04:51:38;;;;;;;8.95;5.05;;;;;;;1.98;90.11;96081.72;5030982;28;20425;-77
2022/02/13 04:54:04;;;;;;;7.55;4.68;;;;;;;2.05;89.86;96088.94;5043320;28;20010;-79
2022/02/13 04:56:29;;;;;;;7.05;4.40;;;;;;;1.99;91.29;96089.25;5034490;28;20414;-77
2022/02/13 04:58:55;;;;;;;5.85;3.85;;;;;;;1.99;90.87;96088.47;5032878;28;20059;-77
2022/02/13 05:01:20;;;;;;;5.82;4.60;;;;;;;2.06;90.57;96084.63;5031992;28;20022;-77
2022/02/13 05:03:45;;;;;;;5.50;3.70;;;;;;;1.98;90.24;96090.19;5012793;28;20029;-75
2022/02/13 05:06:11;;;;;;;6.30;3.97;;;;;;;1.94;90.93;96087.91;5028928;28;20459;-76
2022/02/13 05:08:37;;;;;;;6.55;4.22;;;;;;;2.00;90.25;96092.63;5028622;28;20025;-78
2022/02/13 05:11:02;;;;;;;5.60;4.70;;;;;;;2.03;89.55;96090.72;5032702;28;20029;-75
2022/02/13 05:13:28;;;;;;;7.22;4.10;;;;;;;2.03;89.16;96090.72;5029256;28;20026;-75
2022/02/13 05:15:53;;;;;;;6.45;4.38;;;;;;;2.03;88.16;96090.72;5034178;28;20577;-76
2022/02/13 05:18:19;;;;;;;9.30;4.80;;;;;;;2.07;87.53;96092.19;5029036;28;20025;-75
2022/02/13 05:20:44;;;;;;;5.00;4.07;;;;;;;2.07;87.39;96083.72;5029731;28;20032;-75
2022/02/13 05:23:10;;;;;;;7.05;4.82;;;;;;;2.02;88.05;96089.06;5030846;28;20116;-75
2022/02/13 05:25:35;;;;;;;9.60;4.68;;;;;;;1.99;89.32;96093.56;5029344;28;20549;-77
2022/02/13 05:28:01;;;;;;;5.47;4.05;;;;;;;1.94;89.64;96078.50;5045741;28;20499;-76
2022/02/13 05:30:26;;;;;;;6.03;4.72;;;;;;;1.99;89.45;96076.50;5030326;28;20026;-76
2022/02/13 05:32:51;;;;;;;10.90;4.50;;;;;;;2.05;90.11;96099.16;5031901;28;20040;-75
2022/02/13 05:35:17;;;;;;;7.07;4.35;;;;;;;2.04;90.43;96079.63;5030750;28;20528;-76
2022/02/13 05:37:42;;;;;;;7.47;4.43;;;;;;;2.02;91.01;96083.19;5030915;28;20026;-76
2022/02/13 05:40:09;;;;;;;6.30;4.38;;;;;;;2.08;91.27;96088.75;5013540;28;20026;-77
2022/02/13 05:42:35;;;;;;;7.72;4.80;;;;;;;2.07;91.47;96079.44;5030041;28;20048;-77
2022/02/13 05:45:00;;;;;;;5.85;4.50;;;;;;;2.09;91.26;96081.88;5035196;28;20057;-75
2022/02/13 05:47:26;;;;;;;7.88;4.15;;;;;;;2.09;92.00;96092.91;5026957;28;20034;-76
2022/02/13 05:49:51;;;;;;;7.97;4.70;;;;;;;2.11;91.18;96090.28;5031091;28;20036;-76
2022/02/13 05:52:17;;;;;;;6.20;4.07;;;;;;;2.07;91.38;96089.66;5028736;28;20051;-77
2022/02/13 05:54:42;;;;;;;7.65;4.20;;;;;;;2.07;90.61;96087.09;5015119;28;20423;-76
2022/02/13 05:57:08;;;;;;;6.22;4.18;;;;;;;2.02;91.29;96083.97;5028094;28;20467;-77
2022/02/13 05:59:33;;;;;;;6.45;4.60;;;;;;;2.07;90.79;96091.38;5032074;28;20029;-77
2022/02/13 06:01:59;;;;;;;4.68;3.88;;;;;;;2.18;89.11;96106.06;5033350;28;20039;-76
2022/02/13 06:04:25;;;;;;;5.97;4.18;;;;;;;2.14;89.58;96115.66;5029912;28;20018;-75
2022/02/13 06:06:52;;;;;;;5.88;4.32;;;;;;;2.16;87.85;96095.94;5028749;28;20083;-76
2022/02/13 06:09:19;;;;;;;10.85;4.13;;;;;;;2.18;88.23;96113.72;5026846;28;20049;-76
2022/02/13 06:11:44;;;;;;;6.32;3.72;;;;;;;2.21;88.03;96113.56;5029714;28;20034;-76
2022/02/13 06:14:10;;;;;;;7.70;4.10;;;;;;;2.08;87.28;96104.06;5035477;28;20036;-76
2022/02/13 06:16:36;;;;;;;6.38;4.15;;;;;;;2.14;87.64;96113.09;5029050;28;20049;-75
2022/02/13 06:19:01;;;;;;;5.32;4.00;;;;;;;2.21;86.63;96108.44;5027637;28;20493;-77
2022/02/13 06:21:27;;;;;;;6.13;4.50;;;;;;;2.17;87.20;96118.03;5030400;28;20109;-75
2022/02/13 06:23:52;;;;;;;7.50;4.40;;;;;;;2.19;86.69;96112.81;5040420;28;20078;-79
2022/02/13 06:26:17;;;;;;;7.07;3.95;;;;;;;2.23;86.34;96117.66;5041987;28;20679;-75
2022/02/13 06:28:43;;;;;;;23.08;7.13;;;;;;;2.26;87.03;96121.75;5027218;28;20416;-78
2022/02/13 06:31:09;;;;;;;4.85;3.47;;;;;;;2.23;85.89;96110.00;5041261;28;20036;-78
2022/02/13 06:33:34;;;;;;;8.70;5.18;;;;;;;2.36;86.37;96117.75;5033337;28;20048;-77
2022/02/13 06:35:59;;;;;;;4.38;3.97;;;;;;;2.30;86.63;96121.50;5027578;28;20040;-77
2022/02/13 06:38:25;;;;;;;6.13;4.32;;;;;;;2.40;86.53;96124.31;5034004;28;20040;-75
2022/02/13 06:40:50;;;;;;;5.75;4.07;;;;;;;2.39;87.02;96120.09;5027651;28;20075;-76
2022/02/13 06:43:16;;;;;;;5.00;4.05;;;;;;;2.38;86.92;96116.72;5029748;28;20044;-79
2022/02/13 06:45:41;;;;;;;4.88;4.47;;;;;;;2.55;86.63;96129.31;5027303;28;20391;-74
2022/02/13 06:48:07;;;;;;;7.38;3.88;;;;;;;2.64;86.41;96122.81;5036685;28;20032;-77
2022/02/13 06:50:33;;;;;;;5.40;3.88;;;;;;;2.75;86.09;96117.06;5027225;28;20025;-76
2022/02/13 06:52:59;;;;;;;5.07;4.28;;;;;;;2.58;86.08;96100.19;5027404;28;20557;-76
2022/02/13 06:55:24;;;;;;;13.23;8.02;;;;;;;2.72;85.84;96112.13;5029302;28;20022;-76
2022/02/13 06:57:50;;;;;;;7.00;5.80;;;;;;;2.96;85.18;96110.59;5025877;28;20552;-76
2022/02/13 07:00:16;;;;;;;7.18;4.53;;;;;;;2.83;84.70;96114.81;5028033;28;20037;-78
2022/02/13 07:02:42;;;;;;;7.25;4.53;;;;;;;3.25;85.06;96107.03;5025568;28;20427;-77
2022/02/13 07:05:08;;;;;;;5.50;4.82;;;;;;;3.15;83.99;96121.31;5030695;28;20026;-78
2022/02/13 07:07:36;;;;;;;9.93;5.50;;;;;;;3.61;80.93;96102.09;5025724;28;20117;-77
2022/02/13 07:10:03;;;;;;;5.60;3.67;;;;;;;4.32;79.79;96105.91;5025979;28;20029;-76
2022/02/13 07:12:29;;;;;;;5.43;3.58;;;;;;;4.25;79.01;96111.47;5024479;28;20030;-76
2022/02/13 07:14:54;;;;;;;3.97;3.58;;;;;;;3.99;76.53;96101.31;5025483;28;20025;-75
2022/02/13 07:17:19;;;;;;;4.30;3.90;;;;;;;4.12;78.72;96097.00;5025329;28;20014;-76
2022/02/13 07:19:45;;;;;;;4.90;4.45;;;;;;;4.08;76.03;96096.38;5027169;28;20030;-76
2022/02/13 07:22:10;;;;;;;6.07;3.97;;;;;;;4.18;77.49;96102.53;5024831;28;20398;-77
2022/02/13 07:24:37;;;;;;;6.85;4.05;;;;;;;4.60;76.94;96091.09;5034707;28;20511;-77
2022/02/13 07:27:04;;;;;;;5.50;3.72;;;;;;;4.01;75.35;96100.31;5027984;28;20026;-78
2022/02/13 07:29:29;;;;;;;8.02;3.42;;;;;;;4.85;71.68;96099.66;5025808;28;20051;-76
2022/02/13 07:31:55;;;;;;;7.93;4.15;;;;;;;3.88;77.44;96109.72;5021903;28;20109;-76
2022/02/13 07:34:20;;;;;;;5.07;3.80;;;;;;;3.54;78.85;96103.41;5032681;28;19997;-77
2022/02/13 07:36:51;;;;;;;7.57;4.65;;;;;;;4.09;77.44;96103.16;5005597;28;20328;-77
2022/02/13 07:39:16;;;;;;;8.30;5.10;;;;;;;3.82;80.01;96109.31;5020287;28;20483;-75
2022/02/13 07:41:42;;;;;;;7.63;4.22;;;;;;;3.98;79.78;96102.25;5024838;28;20101;-76
2022/02/13 07:44:08;;;;;;;8.73;5.28;;;;;;;4.27;78.03;96095.16;5024671;28;20029;-75
2022/02/13 07:46:34;;;;;;;7.15;4.18;;;;;;;4.08;78.58;96096.38;5024303;28;20096;-76
2022/02/13 07:49:04;;;;;;;6.25;4.78;;;;;;;3.80;79.42;96098.31;5026010;28;20163;-79
2022/02/13 07:51:32;;;;;;;4.75;3.88;;;;;;;3.75;79.49;96092.69;5027920;28;20018;-80
2022/02/13 07:53:57;;;;;;;10.52;7.13;;;;;;;3.72;79.30;96089.41;5027616;28;20123;-77
2022/02/13 07:56:23;;;;;;;6.28;3.95;;;;;;;3.64;77.20;96096.78;5022490;28;20018;-77
2022/02/13 07:58:48;;;;;;;3.53;2.92;;;;;;;3.34;78.47;96080.84;5031979;28;20040;-77
2022/02/13 08:01:17;;;;;;;4.57;3.30;;;;;;;3.39;78.55;96083.13;5039325;28;20088;-77
2022/02/13 08:03:43;;;;;;;6.53;3.85;;;;;;;3.83;76.78;96080.19;5036237;28;20033;-81
2022/02/13 08:06:09;;;;;;;7.85;4.20;;;;;;;3.85;77.17;96084.31;5036445;28;20399;-79
2022/02/13 08:08:36;;;;;;;6.47;3.60;;;;;;;3.91;76.95;96080.50;5030994;28;20049;-81
2022/02/13 08:11:03;;;;;;;3.65;2.80;;;;;;;3.54;78.12;96066.75;5040521;28;20032;-79
2022/02/13 08:13:30;;;;;;;5.55;3.33;;;;;;;3.69;76.41;96069.13;5050954;28;20038;-81
2022/02/13 08:15:55;;;;;;;5.05;3.70;;;;;;;3.63;76.90;96079.75;5042972;28;20105;-79
2022/02/13 08:18:21;;;;;;;5.35;3.28;;;;;;;3.87;77.05;96074.78;5044698;28;20060;-80
2022/02/13 08:20:46;;;;;;;6.40;2.92;;;;;;;3.62;75.90;96059.41;5034348;28;20073;-80
2022/02/13 08:23:12;;;;;;;5.10;3.17;;;;;;;3.62;76.60;96051.72;5043114;28;20020;-80
2022/02/13 08:25:40;;;;;;;5.95;3.38;;;;;;;3.90;76.24;96066.88;5032164;28;20006;-81
2022/02/13 08:28:05;;;;;;;5.88;2.75;;;;;;;4.51;74.32;96063.53;5033961;28;20017;-78
2022/02/13 08:30:31;;;;;;;5.97;3.17;;;;;;;3.72;75.99;96045.84;5037193;28;20048;-80
2022/02/13 08:32:58;;;;;;;5.30;3.20;;;;;;;4.01;75.50;96063.59;5040162;28;20071;-78
2022/02/13 08:35:26;;;;;;;4.00;2.72;;;;;;;3.82;75.75;96076.00;5036922;28;20048;-77
2022/02/13 08:37:51;;;;;;;6.38;3.17;;;;;;;3.62;75.48;96067.91;5039664;28;20104;-80
2022/02/13 08:40:17;;;;;;;4.53;2.58;;;;;;;3.52;75.60;96048.94;5027417;28;20026;-79
2022/02/13 08:42:43;;;;;;;6.60;2.72;;;;;;;3.76;75.20;96068.72;5005972;28;20022;-78
2022/02/13 08:45:09;;;;;;;3.72;2.83;;;;;;;3.64;77.16;96057.53;5033275;28;20572;-81
2022/02/13 08:47:35;;;;;;;5.57;2.83;;;;;;;3.54;77.14;96054.75;5022844;28;20020;-76
2022/02/13 08:50:02;;;;;;;7.25;3.97;;;;;;;3.71;77.58;96041.69;5040917;28;20029;-77
2022/02/13 08:52:27;;;;;;;6.07;2.88;;;;;;;3.35;79.02;96062.00;5051787;28;20041;-78
2022/02/13 08:54:52;;;;;;;7.97;4.35;;;;;;;3.53;79.38;96052.31;5036149;28;20105;-77
2022/02/13 08:57:18;;;;;;;7.65;3.75;;;;;;;3.39;80.37;96053.22;5047859;28;20017;-80
2022/02/13 08:59:43;;;;;;;7.32;4.30;;;;;;;3.45;81.19;96057.94;5022132;28;20030;-77
2022/02/13 09:02:09;;;;;;;5.30;4.15;;;;;;;3.59;81.26;96057.84;5029329;28;20037;-78
2022/02/13 09:04:35;;;;;;;6.75;4.47;;;;;;;3.54;81.65;96064.19;5028626;28;20026;-79
2022/02/13 09:07:01;;;;;;;6.32;3.97;;;;;;;3.48;82.60;96067.97;5033028;28;20084;-76
2022/02/13 09:09:31;;;;;;;4.93;3.65;;;;;;;3.53;81.46;96065.13;5031466;28;20025;-80
2022/02/13 09:11:57;;;;;;;;;;;;;;;3.58;81.62;96061.34;5383823;22;20024;-79
2022/02/13 09:14:22;;;;;;;3.83;3.42;;;;;;;3.75;80.65;96020.97;5042396;28;20295;-79
2022/02/13 09:16:48;;;;;;;7.32;4.22;;;;;;;3.73;81.31;96021.06;5028725;28;20083;-79
2022/02/13 09:19:13;;;;;;;4.50;3.58;;;;;;;3.80;81.54;96035.09;5031785;28;20091;-79
2022/02/13 09:21:40;;;;;;;5.88;3.17;;;;;;;3.76;81.65;96030.31;5015812;28;20013;-78
2022/02/13 09:24:06;;;;;;;4.63;3.15;;;;;;;3.67;81.09;96030.00;5019463;28;20010;-79
2022/02/13 09:29:06;;;;;;;6.65;3.53;;;;;;;4.17;80.41;96034.25;5324578;22;20049;-78
2022/02/13 09:31:33;;;;;;;4.72;3.85;;;;;;;4.14;79.33;96060.09;5046618;28;20037;-79
2022/02/13 09:33:58;;;;;;;6.30;3.13;;;;;;;4.10;80.71;96034.78;5051406;28;20037;-80
2022/02/13 09:36:24;;;;;;;6.68;3.47;;;;;;;4.46;78.46;96039.97;5054920;28;20032;-81
2022/02/13 09:38:53;;;;;;;6.70;3.53;;;;;;;4.68;74.32;95996.47;5056203;23;20140;-76
2022/02/13 09:41:29;;;;;;;5.60;3.17;;;;;;;5.72;68.16;95997.38;5047987;28;20045;-79
2022/02/13 09:46:30;;;;;;;3.70;2.95;;;;;;;6.83;63.20;96007.59;5420639;22;20046;-79
2022/02/13 09:48:56;;;;;;;7.68;3.05;;;;;;;5.72;64.43;95982.75;5030562;28;20045;-79
2022/02/13 09:51:22;;;;;;;3.58;2.75;;;;;;;5.50;64.97;95981.91;5051952;28;20017;-80
2022/02/13 09:53:48;;;;;;;5.57;2.60;;;;;;;6.18;66.42;95971.59;5033920;28;20033;-78
2022/02/13 09:56:13;;;;;;;3.40;2.70;;;;;;;5.93;64.42;95972.66;5042296;28;20022;-78
2022/02/13 09:58:43;;;;;;;10.07;2.70;;;;;;;6.65;64.12;95986.69;5033915;28;20032;-80
2022/02/13 10:01:10;;;;;;;4.67;2.67;;;;;;;8.09;62.63;95953.34;5037925;28;20021;-80
2022/02/13 10:04:01;;;;;;;5.50;2.80;;;;;;;5.05;67.91;95981.81;5374887;22;20023;-79
2022/02/13 10:06:27;;;;;;;3.60;2.55;;;;;;;6.62;64.67;95968.09;5662585;22;20148;-78
2022/02/13 10:08:55;;;;;;;7.00;2.72;;;;;;;5.33;67.89;95962.63;5064601;28;20041;-81
2022/02/13 10:11:25;;;;;;;5.47;3.25;;;;;;;5.19;70.65;95958.53;5057022;28;20057;-79
2022/02/13 10:13:58;;;;;;;9.32;4.07;;;;;;;4.79;70.84;95967.47;5075294;28;20012;-76
2022/02/13 10:16:24;;;;;;;5.30;3.10;;;;;;;5.26;73.83;95999.97;5328808;22;20049;-79
2022/02/13 10:18:51;;;;;;;4.10;3.60;;;;;;;5.16;72.23;95983.59;5054664;28;20072;-79
2022/02/13 10:21:44;;;;;;;8.07;3.67;;;;;;;4.96;72.28;95984.22;5051095;28;20009;-79
2022/02/13 10:24:19;;;;;;;4.35;3.70;;;;;;;5.94;68.72;95981.19;5024475;28;20034;-79
2022/02/13 10:26:46;;;;;;;5.10;3.60;;;;;;;4.77;70.53;95966.78;5024983;28;20037;-80
2022/02/13 10:29:12;;;;;;;4.35;3.10;;;;;;;4.81;71.58;95959.69;5017542;28;20539;-76
2022/02/13 10:31:42;;;;;;;5.13;3.20;;;;;;;4.87;72.79;95954.09;5037431;28;20084;-79
2022/02/13 10:34:08;;;;;;;4.65;2.60;;;;;;;5.25;72.20;95952.13;5041162;28;20041;-79
2022/02/13 10:39:31;;;;;;;10.55;6.55;;;;;;;5.09;70.00;95921.63;5394880;22;20381;-79
2022/02/13 10:41:56;;;;;;;6.07;4.53;;;;;;;5.37;69.20;95922.13;5042511;28;20040;-80
2022/02/13 10:46:57;;;;;;;6.28;2.92;;;;;;;4.88;67.57;95899.28;5304259;22;20056;-79
2022/02/13 10:58:12;;;;;;;3.05;2.30;;;;;;;4.96;68.07;95904.66;5212891;22;20057;-78
2022/02/13 11:00:39;;;;;;;4.07;2.80;;;;;;;5.37;65.80;95858.75;5023778;28;20037;-80
2022/02/13 11:08:17;;;;;;;4.82;3.30;;;;;;;5.17;64.79;95878.22;5382140;22;20042;-81
2022/02/13 11:10:44;;;;;;;3.25;2.33;;;;;;;5.80;64.76;95881.97;5016391;28;20044;-79
2022/02/13 11:13:10;;;;;;;5.10;2.22;;;;;;;6.06;61.96;95867.13;5011733;28;20076;-79
2022/02/13 11:15:38;;;;;;;5.43;2.63;;;;;;;6.28;64.41;95882.50;5030359;28;20045;-78
2022/02/13 11:18:06;;;;;;;5.22;3.35;;;;;;;5.85;67.73;95885.00;4995736;28;20033;-78
2022/02/13 11:20:33;;;;;;;4.78;3.25;;;;;;;5.71;73.16;95868.09;5008642;28;20116;-76
2022/02/13 11:23:21;;;;;;;5.65;3.30;;;;;;;5.99;70.09;95878.81;5010371;28;20052;-77
2022/02/13 11:25:56;;;;;;;3.42;2.50;;;;;;;6.31;64.53;95872.78;5010431;28;20562;-77
2022/02/13 11:28:27;;;;;;;5.55;2.92;;;;;;;5.73;69.54;95863.63;5026943;28;20033;-77
2022/02/13 11:30:59;;;;;;;4.82;3.15;;;;;;;6.00;71.38;95850.44;5010828;28;20490;-77
2022/02/13 11:33:30;;;;;;;5.05;2.38;;;;;;;6.28;65.67;95855.03;5020476;28;20034;-77
2022/02/13 11:36:02;;;;;;;3.40;2.60;;;;;;;6.06;65.95;95849.13;5029247;28;20048;-77
2022/02/13 11:38:48;;;;;;;3.35;3.05;;;;;;;6.08;67.33;95842.91;5009539;28;20100;-77
2022/02/13 11:41:14;;;;;;;3.10;2.80;;;;;;;5.84;70.77;95840.47;5029166;28;20026;-78
2022/02/13 11:43:45;;;;;;;4.68;3.20;;;;;;;5.95;70.86;95839.69;5031387;28;20026;-77
2022/02/13 11:46:14;;;;;;;7.57;3.60;;;;;;;6.01;68.44;95834.06;5029874;28;20021;-80
2022/02/13 11:48:43;;;;;;;5.63;3.25;;;;;;;6.15;69.29;95828.66;5012976;28;20031;-81
2022/02/13 11:51:10;;;;;;;5.00;2.78;;;;;;;6.44;67.77;95823.75;4994541;28;20072;-79
2022/02/13 11:53:42;;;;;;;5.68;3.13;;;;;;;6.35;69.74;95822.72;5015478;28;20429;-78
2022/02/13 11:56:24;;;;;;;6.38;3.08;;;;;;;6.51;67.84;95816.34;5030646;28;20038;-80
2022/02/13 11:58:49;;;;;;;5.25;3.17;;;;;;;6.48;69.56;95814.00;4996707;28;20033;-78
2022/02/13 12:01:44;;;;;;;6.43;3.47;;;;;;;5.93;69.29;95810.72;4995472;28;20043;-78
2022/02/13 12:04:10;;;;;;;6.13;2.72;;;;;;;6.24;69.96;95803.94;5007612;28;20054;-78
2022/02/13 12:06:36;;;;;;;5.75;3.53;;;;;;;6.59;71.01;95794.19;5011191;28;20028;-79